sensor_id;sensor_type;location;lat;lon;timestamp;P1;durP1;ratioP1;P2;durP2;ratioP2
7887;SDS011;3989;48.810;9.208;2023-05-10T00:00:46;3.73;;;1.40;;
7887;SDS011;3989;48.810;9.208;2023-05-10T00:03:12;1.40;;;1.30;;
7887;SDS011;3989;48.810;9.208;2023-05-10T00:05:40;0.93;;;0.93;;
7887;SDS011;3989;48.810;9.208;2023-05-10T00:08:07;0.80;;;0.80;;
7887;SDS011;3989;48.810;9.208;2023-05-10T00:10:34;0.80;;;0.80;;
7887;SDS011;3989;48.810;9.208;2023-05-10T00:13:03;0.80;;;0.80;;
7887;SDS011;3989;48.810;9.208;2023-05-10T00:15:30;1.27;;;0.80;;
7887;SDS011;3989;48.810;9.208;2023-05-10T00:17:56;1.40;;;0.70;;
7887;SDS011;3989;48.810;9.208;2023-05-10T00:20:23;1.30;;;0.93;;
7887;SDS011;3989;48.810;9.208;2023-05-10T00:22:51;1.07;;;0.73;;
7887;SDS011;3989;48.810;9.208;2023-05-10T00:25:17;0.43;;;0.43;;
7887;SDS011;3989;48.810;9.208;2023-05-10T00:27:45;0.40;;;0.40;;
7887;SDS011;3989;48.810;9.208;2023-05-10T00:30:12;0.40;;;0.40;;
7887;SDS011;3989;48.810;9.208;2023-05-10T00:32:39;0.50;;;0.50;;
7887;SDS011;3989;48.810;9.208;2023-05-10T00:35:05;1.60;;;0.50;;
7887;SDS011;3989;48.810;9.208;2023-05-10T00:37:32;0.33;;;0.33;;
7887;SDS011;3989;48.810;9.208;2023-05-10T00:40:00;0.77;;;0.50;;
7887;SDS011;3989;48.810;9.208;2023-05-10T00:42:27;0.43;;;0.43;;
7887;SDS011;3989;48.810;9.208;2023-05-10T00:44:54;2.43;;;0.83;;
7887;SDS011;3989;48.810;9.208;2023-05-10T00:47:21;1.23;;;0.50;;
7887;SDS011;3989;48.810;9.208;2023-05-10T00:49:48;0.50;;;0.50;;
7887;SDS011;3989;48.810;9.208;2023-05-10T00:52:15;0.40;;;0.40;;
7887;SDS011;3989;48.810;9.208;2023-05-10T00:54:42;0.40;;;0.40;;
7887;SDS011;3989;48.810;9.208;2023-05-10T00:57:10;0.40;;;0.40;;
7887;SDS011;3989;48.810;9.208;2023-05-10T00:59:37;0.83;;;0.50;;
7887;SDS011;3989;48.810;9.208;2023-05-10T01:02:04;0.57;;;0.57;;
7887;SDS011;3989;48.810;9.208;2023-05-10T01:04:31;1.20;;;0.60;;
7887;SDS011;3989;48.810;9.208;2023-05-10T01:06:58;0.50;;;0.50;;
7887;SDS011;3989;48.810;9.208;2023-05-10T01:09:27;0.63;;;0.63;;
7887;SDS011;3989;48.810;9.208;2023-05-10T01:11:54;0.60;;;0.60;;
7887;SDS011;3989;48.810;9.208;2023-05-10T01:14:22;0.50;;;0.50;;
7887;SDS011;3989;48.810;9.208;2023-05-10T01:16:50;0.60;;;0.60;;
7887;SDS011;3989;48.810;9.208;2023-05-10T01:19:22;0.57;;;0.57;;
7887;SDS011;3989;48.810;9.208;2023-05-10T01:21:53;0.53;;;0.53;;
7887;SDS011;3989;48.810;9.208;2023-05-10T01:24:38;0.53;;;0.53;;
7887;SDS011;3989;48.810;9.208;2023-05-10T01:27:24;1.30;;;0.60;;
7887;SDS011;3989;48.810;9.208;2023-05-10T01:30:08;1.60;;;0.60;;
7887;SDS011;3989;48.810;9.208;2023-05-10T01:32:49;0.97;;;0.90;;
7887;SDS011;3989;48.810;9.208;2023-05-10T01:35:22;0.70;;;0.70;;
7887;SDS011;3989;48.810;9.208;2023-05-10T01:37:59;0.50;;;0.50;;
7887;SDS011;3989;48.810;9.208;2023-05-10T01:40:39;0.67;;;0.67;;
7887;SDS011;3989;48.810;9.208;2023-05-10T01:43:11;0.67;;;0.67;;
7887;SDS011;3989;48.810;9.208;2023-05-10T01:45:47;0.70;;;0.70;;
7887;SDS011;3989;48.810;9.208;2023-05-10T01:48:22;1.40;;;0.80;;
7887;SDS011;3989;48.810;9.208;2023-05-10T01:50:52;0.60;;;0.60;;
7887;SDS011;3989;48.810;9.208;2023-05-10T01:53:19;0.80;;;0.80;;
7887;SDS011;3989;48.810;9.208;2023-05-10T01:55:48;1.10;;;1.10;;
7887;SDS011;3989;48.810;9.208;2023-05-10T01:58:20;5.03;;;0.80;;
7887;SDS011;3989;48.810;9.208;2023-05-10T02:00:49;0.80;;;0.80;;
7887;SDS011;3989;48.810;9.208;2023-05-10T02:03:18;0.60;;;0.60;;
7887;SDS011;3989;48.810;9.208;2023-05-10T02:05:49;1.33;;;1.10;;
7887;SDS011;3989;48.810;9.208;2023-05-10T02:08:18;0.87;;;0.87;;
7887;SDS011;3989;48.810;9.208;2023-05-10T02:10:47;0.90;;;0.90;;
7887;SDS011;3989;48.810;9.208;2023-05-10T02:13:16;0.90;;;0.90;;
7887;SDS011;3989;48.810;9.208;2023-05-10T02:15:45;0.90;;;0.90;;
7887;SDS011;3989;48.810;9.208;2023-05-10T02:18:14;0.90;;;0.90;;
7887;SDS011;3989;48.810;9.208;2023-05-10T02:20:43;1.73;;;0.90;;
7887;SDS011;3989;48.810;9.208;2023-05-10T02:23:12;1.23;;;0.90;;
7887;SDS011;3989;48.810;9.208;2023-05-10T02:25:40;0.90;;;0.90;;
7887;SDS011;3989;48.810;9.208;2023-05-10T02:28:09;1.00;;;1.00;;
7887;SDS011;3989;48.810;9.208;2023-05-10T02:30:37;1.30;;;1.20;;
7887;SDS011;3989;48.810;9.208;2023-05-10T02:33:05;1.10;;;1.10;;
7887;SDS011;3989;48.810;9.208;2023-05-10T02:35:33;1.00;;;1.00;;
7887;SDS011;3989;48.810;9.208;2023-05-10T02:38:02;1.00;;;1.00;;
7887;SDS011;3989;48.810;9.208;2023-05-10T02:40:30;0.90;;;0.90;;
7887;SDS011;3989;48.810;9.208;2023-05-10T02:42:58;1.10;;;1.10;;
7887;SDS011;3989;48.810;9.208;2023-05-10T02:45:28;1.10;;;1.10;;
7887;SDS011;3989;48.810;9.208;2023-05-10T02:48:00;1.50;;;0.80;;
7887;SDS011;3989;48.810;9.208;2023-05-10T02:50:28;3.33;;;1.00;;
7887;SDS011;3989;48.810;9.208;2023-05-10T02:53:00;1.03;;;1.00;;
7887;SDS011;3989;48.810;9.208;2023-05-10T02:55:33;1.10;;;1.10;;
7887;SDS011;3989;48.810;9.208;2023-05-10T02:58:03;0.80;;;0.80;;
7887;SDS011;3989;48.810;9.208;2023-05-10T03:00:30;3.20;;;1.00;;
7887;SDS011;3989;48.810;9.208;2023-05-10T03:03:01;1.23;;;0.83;;
7887;SDS011;3989;48.810;9.208;2023-05-10T03:05:31;1.20;;;1.20;;
7887;SDS011;3989;48.810;9.208;2023-05-10T03:07:58;2.73;;;1.10;;
7887;SDS011;3989;48.810;9.208;2023-05-10T03:10:27;0.90;;;0.90;;
7887;SDS011;3989;48.810;9.208;2023-05-10T03:13:05;0.80;;;0.80;;
7887;SDS011;3989;48.810;9.208;2023-05-10T03:15:37;0.70;;;0.70;;
7887;SDS011;3989;48.810;9.208;2023-05-10T03:18:15;0.90;;;0.90;;
7887;SDS011;3989;48.810;9.208;2023-05-10T03:20:47;0.63;;;0.63;;
7887;SDS011;3989;48.810;9.208;2023-05-10T03:23:18;0.80;;;0.80;;
7887;SDS011;3989;48.810;9.208;2023-05-10T03:25:50;0.80;;;0.80;;
7887;SDS011;3989;48.810;9.208;2023-05-10T03:28:18;0.70;;;0.70;;
7887;SDS011;3989;48.810;9.208;2023-05-10T03:30:46;0.90;;;0.90;;
7887;SDS011;3989;48.810;9.208;2023-05-10T03:33:13;1.10;;;1.10;;
7887;SDS011;3989;48.810;9.208;2023-05-10T03:35:40;1.07;;;1.07;;
7887;SDS011;3989;48.810;9.208;2023-05-10T03:38:06;0.90;;;0.90;;
7887;SDS011;3989;48.810;9.208;2023-05-10T03:40:33;0.90;;;0.90;;
7887;SDS011;3989;48.810;9.208;2023-05-10T03:43:01;1.20;;;1.20;;
7887;SDS011;3989;48.810;9.208;2023-05-10T03:45:28;5.00;;;1.30;;
7887;SDS011;3989;48.810;9.208;2023-05-10T03:47:55;1.20;;;1.17;;
7887;SDS011;3989;48.810;9.208;2023-05-10T03:50:23;1.30;;;1.30;;
7887;SDS011;3989;48.810;9.208;2023-05-10T03:52:49;1.73;;;1.67;;
7887;SDS011;3989;48.810;9.208;2023-05-10T03:55:16;1.60;;;1.60;;
7887;SDS011;3989;48.810;9.208;2023-05-10T03:57:42;2.13;;;1.87;;
7887;SDS011;3989;48.810;9.208;2023-05-10T04:00:11;2.03;;;1.67;;
7887;SDS011;3989;48.810;9.208;2023-05-10T04:02:38;1.47;;;1.47;;
7887;SDS011;3989;48.810;9.208;2023-05-10T04:05:05;1.33;;;1.33;;
7887;SDS011;3989;48.810;9.208;2023-05-10T04:07:32;1.20;;;1.20;;
7887;SDS011;3989;48.810;9.208;2023-05-10T04:09:58;0.90;;;0.90;;
7887;SDS011;3989;48.810;9.208;2023-05-10T04:12:25;1.77;;;1.67;;
7887;SDS011;3989;48.810;9.208;2023-05-10T04:14:52;1.43;;;1.43;;
7887;SDS011;3989;48.810;9.208;2023-05-10T04:17:20;1.43;;;1.43;;
7887;SDS011;3989;48.810;9.208;2023-05-10T04:19:47;1.13;;;1.10;;
7887;SDS011;3989;48.810;9.208;2023-05-10T04:22:13;1.47;;;1.30;;
7887;SDS011;3989;48.810;9.208;2023-05-10T04:24:41;1.10;;;1.10;;
7887;SDS011;3989;48.810;9.208;2023-05-10T04:27:07;2.50;;;1.60;;
7887;SDS011;3989;48.810;9.208;2023-05-10T04:29:34;1.30;;;1.30;;
7887;SDS011;3989;48.810;9.208;2023-05-10T04:32:01;1.13;;;1.07;;
7887;SDS011;3989;48.810;9.208;2023-05-10T04:34:30;1.20;;;1.10;;
7887;SDS011;3989;48.810;9.208;2023-05-10T04:36:59;1.00;;;1.00;;
7887;SDS011;3989;48.810;9.208;2023-05-10T04:39:25;1.70;;;1.40;;
7887;SDS011;3989;48.810;9.208;2023-05-10T04:41:52;1.10;;;1.10;;
7887;SDS011;3989;48.810;9.208;2023-05-10T04:44:19;1.10;;;1.10;;
7887;SDS011;3989;48.810;9.208;2023-05-10T04:46:45;2.63;;;1.37;;
7887;SDS011;3989;48.810;9.208;2023-05-10T04:49:12;3.53;;;1.40;;
7887;SDS011;3989;48.810;9.208;2023-05-10T04:51:40;1.10;;;1.10;;
7887;SDS011;3989;48.810;9.208;2023-05-10T04:54:07;1.20;;;1.20;;
7887;SDS011;3989;48.810;9.208;2023-05-10T04:56:34;2.53;;;1.17;;
7887;SDS011;3989;48.810;9.208;2023-05-10T04:59:00;1.20;;;1.10;;
7887;SDS011;3989;48.810;9.208;2023-05-10T05:01:27;0.97;;;0.97;;
7887;SDS011;3989;48.810;9.208;2023-05-10T05:03:54;1.00;;;1.00;;
7887;SDS011;3989;48.810;9.208;2023-05-10T05:06:20;1.30;;;1.30;;
7887;SDS011;3989;48.810;9.208;2023-05-10T05:08:48;2.30;;;1.20;;
7887;SDS011;3989;48.810;9.208;2023-05-10T05:11:17;1.40;;;1.30;;
7887;SDS011;3989;48.810;9.208;2023-05-10T05:13:43;1.17;;;1.17;;
7887;SDS011;3989;48.810;9.208;2023-05-10T05:16:10;1.30;;;1.30;;
7887;SDS011;3989;48.810;9.208;2023-05-10T05:18:37;1.60;;;0.97;;
7887;SDS011;3989;48.810;9.208;2023-05-10T05:21:12;1.13;;;1.13;;
7887;SDS011;3989;48.810;9.208;2023-05-10T05:23:54;0.87;;;0.87;;
7887;SDS011;3989;48.810;9.208;2023-05-10T05:26:21;1.30;;;1.20;;
7887;SDS011;3989;48.810;9.208;2023-05-10T05:28:47;1.70;;;1.10;;
7887;SDS011;3989;48.810;9.208;2023-05-10T05:31:17;1.20;;;1.10;;
7887;SDS011;3989;48.810;9.208;2023-05-10T05:33:44;0.97;;;0.90;;
7887;SDS011;3989;48.810;9.208;2023-05-10T05:36:10;0.90;;;0.90;;
7887;SDS011;3989;48.810;9.208;2023-05-10T05:38:37;1.00;;;1.00;;
7887;SDS011;3989;48.810;9.208;2023-05-10T05:41:05;1.30;;;0.97;;
7887;SDS011;3989;48.810;9.208;2023-05-10T05:43:32;0.90;;;0.90;;
7887;SDS011;3989;48.810;9.208;2023-05-10T05:45:58;1.00;;;1.00;;
7887;SDS011;3989;48.810;9.208;2023-05-10T05:48:25;0.70;;;0.70;;
7887;SDS011;3989;48.810;9.208;2023-05-10T05:50:54;2.87;;;1.00;;
7887;SDS011;3989;48.810;9.208;2023-05-10T05:53:21;2.33;;;0.87;;
7887;SDS011;3989;48.810;9.208;2023-05-10T05:55:51;0.97;;;0.97;;
7887;SDS011;3989;48.810;9.208;2023-05-10T05:58:20;1.53;;;0.77;;
7887;SDS011;3989;48.810;9.208;2023-05-10T06:00:47;4.97;;;1.63;;
7887;SDS011;3989;48.810;9.208;2023-05-10T06:03:14;0.90;;;0.90;;
7887;SDS011;3989;48.810;9.208;2023-05-10T06:05:40;2.83;;;0.93;;
7887;SDS011;3989;48.810;9.208;2023-05-10T06:08:07;0.90;;;0.90;;
7887;SDS011;3989;48.810;9.208;2023-05-10T06:10:36;1.00;;;1.00;;
7887;SDS011;3989;48.810;9.208;2023-05-10T06:13:03;1.17;;;0.80;;
7887;SDS011;3989;48.810;9.208;2023-05-10T06:15:31;2.00;;;0.87;;
7887;SDS011;3989;48.810;9.208;2023-05-10T06:17:58;1.70;;;0.97;;
7887;SDS011;3989;48.810;9.208;2023-05-10T06:20:25;1.10;;;1.00;;
7887;SDS011;3989;48.810;9.208;2023-05-10T06:22:52;0.93;;;0.70;;
7887;SDS011;3989;48.810;9.208;2023-05-10T06:25:18;0.80;;;0.80;;
7887;SDS011;3989;48.810;9.208;2023-05-10T06:27:45;1.27;;;1.00;;
7887;SDS011;3989;48.810;9.208;2023-05-10T06:30:12;1.00;;;1.00;;
7887;SDS011;3989;48.810;9.208;2023-05-10T06:32:41;1.30;;;1.03;;
7887;SDS011;3989;48.810;9.208;2023-05-10T06:35:09;0.93;;;0.80;;
7887;SDS011;3989;48.810;9.208;2023-05-10T06:37:35;1.93;;;1.00;;
7887;SDS011;3989;48.810;9.208;2023-05-10T06:40:02;1.07;;;1.07;;
7887;SDS011;3989;48.810;9.208;2023-05-10T06:42:29;0.90;;;0.90;;
7887;SDS011;3989;48.810;9.208;2023-05-10T06:44:56;1.10;;;1.10;;
7887;SDS011;3989;48.810;9.208;2023-05-10T06:47:22;3.37;;;1.03;;
7887;SDS011;3989;48.810;9.208;2023-05-10T06:49:50;1.00;;;1.00;;
7887;SDS011;3989;48.810;9.208;2023-05-10T06:52:17;1.37;;;0.93;;
7887;SDS011;3989;48.810;9.208;2023-05-10T06:54:43;2.97;;;1.03;;
7887;SDS011;3989;48.810;9.208;2023-05-10T06:57:10;3.97;;;1.10;;
7887;SDS011;3989;48.810;9.208;2023-05-10T06:59:36;1.20;;;1.10;;
7887;SDS011;3989;48.810;9.208;2023-05-10T07:02:03;2.13;;;1.20;;
7887;SDS011;3989;48.810;9.208;2023-05-10T07:04:33;2.97;;;0.90;;
7887;SDS011;3989;48.810;9.208;2023-05-10T07:07:01;2.10;;;0.90;;
7887;SDS011;3989;48.810;9.208;2023-05-10T07:09:28;1.10;;;1.10;;
7887;SDS011;3989;48.810;9.208;2023-05-10T07:11:55;1.07;;;0.90;;
7887;SDS011;3989;48.810;9.208;2023-05-10T07:14:22;2.93;;;1.30;;
7887;SDS011;3989;48.810;9.208;2023-05-10T07:16:49;1.03;;;1.03;;
7887;SDS011;3989;48.810;9.208;2023-05-10T07:19:20;1.77;;;1.27;;
7887;SDS011;3989;48.810;9.208;2023-05-10T07:21:47;0.80;;;0.80;;
7887;SDS011;3989;48.810;9.208;2023-05-10T07:24:15;0.90;;;0.90;;
7887;SDS011;3989;48.810;9.208;2023-05-10T07:26:42;0.80;;;0.80;;
7887;SDS011;3989;48.810;9.208;2023-05-10T07:29:10;1.00;;;1.00;;
7887;SDS011;3989;48.810;9.208;2023-05-10T07:31:37;0.90;;;0.90;;
7887;SDS011;3989;48.810;9.208;2023-05-10T07:34:08;1.05;;;1.05;;
7887;SDS011;3989;48.810;9.208;2023-05-10T07:36:38;0.90;;;0.90;;
7887;SDS011;3989;48.810;9.208;2023-05-10T07:39:05;0.90;;;0.90;;
7887;SDS011;3989;48.810;9.208;2023-05-10T07:41:34;1.27;;;0.90;;
7887;SDS011;3989;48.810;9.208;2023-05-10T07:44:02;2.08;;;0.85;;
7887;SDS011;3989;48.810;9.208;2023-05-10T07:46:29;2.10;;;1.00;;
7887;SDS011;3989;48.810;9.208;2023-05-10T07:48:56;1.27;;;1.20;;
7887;SDS011;3989;48.810;9.208;2023-05-10T07:51:27;0.88;;;0.88;;
7887;SDS011;3989;48.810;9.208;2023-05-10T07:53:54;1.02;;;0.85;;
7887;SDS011;3989;48.810;9.208;2023-05-10T07:56:24;4.05;;;1.00;;
7887;SDS011;3989;48.810;9.208;2023-05-10T07:58:56;0.80;;;0.80;;
7887;SDS011;3989;48.810;9.208;2023-05-10T08:01:23;1.00;;;1.00;;
7887;SDS011;3989;48.810;9.208;2023-05-10T08:03:52;0.90;;;0.90;;
7887;SDS011;3989;48.810;9.208;2023-05-10T08:06:27;0.73;;;0.70;;
7887;SDS011;3989;48.810;9.208;2023-05-10T08:08:57;0.67;;;0.67;;
7887;SDS011;3989;48.810;9.208;2023-05-10T08:11:24;0.77;;;0.77;;
7887;SDS011;3989;48.810;9.208;2023-05-10T08:13:52;2.20;;;0.83;;
7887;SDS011;3989;48.810;9.208;2023-05-10T08:16:21;1.43;;;0.80;;
7887;SDS011;3989;48.810;9.208;2023-05-10T08:18:47;0.63;;;0.50;;
7887;SDS011;3989;48.810;9.208;2023-05-10T08:21:15;0.80;;;0.80;;
7887;SDS011;3989;48.810;9.208;2023-05-10T08:23:42;2.57;;;0.70;;
7887;SDS011;3989;48.810;9.208;2023-05-10T08:26:09;0.70;;;0.70;;
7887;SDS011;3989;48.810;9.208;2023-05-10T08:28:36;0.70;;;0.70;;
7887;SDS011;3989;48.810;9.208;2023-05-10T08:31:03;0.90;;;0.90;;
7887;SDS011;3989;48.810;9.208;2023-05-10T08:33:32;0.83;;;0.70;;
7887;SDS011;3989;48.810;9.208;2023-05-10T08:35:58;0.53;;;0.53;;
7887;SDS011;3989;48.810;9.208;2023-05-10T08:38:25;0.70;;;0.70;;
7887;SDS011;3989;48.810;9.208;2023-05-10T08:40:55;0.60;;;0.60;;
7887;SDS011;3989;48.810;9.208;2023-05-10T08:43:23;0.60;;;0.60;;
7887;SDS011;3989;48.810;9.208;2023-05-10T08:45:53;0.90;;;0.80;;
7887;SDS011;3989;48.810;9.208;2023-05-10T08:48:21;1.40;;;0.70;;
7887;SDS011;3989;48.810;9.208;2023-05-10T08:50:51;1.47;;;0.63;;
7887;SDS011;3989;48.810;9.208;2023-05-10T08:53:27;0.60;;;0.60;;
7887;SDS011;3989;48.810;9.208;2023-05-10T08:55:57;0.60;;;0.60;;
7887;SDS011;3989;48.810;9.208;2023-05-10T08:58:23;0.50;;;0.50;;
7887;SDS011;3989;48.810;9.208;2023-05-10T09:00:50;1.80;;;0.70;;
7887;SDS011;3989;48.810;9.208;2023-05-10T09:03:17;0.77;;;0.60;;
7887;SDS011;3989;48.810;9.208;2023-05-10T09:05:44;0.50;;;0.40;;
7887;SDS011;3989;48.810;9.208;2023-05-10T09:08:12;0.77;;;0.77;;
7887;SDS011;3989;48.810;9.208;2023-05-10T09:10:41;0.70;;;0.70;;
7887;SDS011;3989;48.810;9.208;2023-05-10T09:13:09;0.50;;;0.50;;
7887;SDS011;3989;48.810;9.208;2023-05-10T09:15:37;1.50;;;0.75;;
7887;SDS011;3989;48.810;9.208;2023-05-10T09:18:03;0.63;;;0.63;;
7887;SDS011;3989;48.810;9.208;2023-05-10T09:20:30;0.57;;;0.55;;
7887;SDS011;3989;48.810;9.208;2023-05-10T09:23:01;0.68;;;0.63;;
7887;SDS011;3989;48.810;9.208;2023-05-10T09:25:35;0.90;;;0.90;;
7887;SDS011;3989;48.810;9.208;2023-05-10T09:28:06;1.48;;;0.80;;
7887;SDS011;3989;48.810;9.208;2023-05-10T09:30:35;0.80;;;0.50;;
7887;SDS011;3989;48.810;9.208;2023-05-10T09:33:05;0.57;;;0.57;;
7887;SDS011;3989;48.810;9.208;2023-05-10T09:35:32;0.70;;;0.50;;
7887;SDS011;3989;48.810;9.208;2023-05-10T09:38:00;0.55;;;0.55;;
7887;SDS011;3989;48.810;9.208;2023-05-10T09:40:34;0.57;;;0.57;;
7887;SDS011;3989;48.810;9.208;2023-05-10T09:43:03;0.52;;;0.52;;
7887;SDS011;3989;48.810;9.208;2023-05-10T09:45:31;0.55;;;0.55;;
7887;SDS011;3989;48.810;9.208;2023-05-10T09:47:59;1.95;;;0.50;;
7887;SDS011;3989;48.810;9.208;2023-05-10T09:50:30;0.75;;;0.50;;
7887;SDS011;3989;48.810;9.208;2023-05-10T09:52:57;1.38;;;0.65;;
7887;SDS011;3989;48.810;9.208;2023-05-10T09:55:25;0.57;;;0.57;;
7887;SDS011;3989;48.810;9.208;2023-05-10T09:57:59;1.08;;;0.50;;
7887;SDS011;3989;48.810;9.208;2023-05-10T10:00:27;0.88;;;0.57;;
7887;SDS011;3989;48.810;9.208;2023-05-10T10:02:55;0.57;;;0.57;;
7887;SDS011;3989;48.810;9.208;2023-05-10T10:05:27;0.70;;;0.50;;
7887;SDS011;3989;48.810;9.208;2023-05-10T10:07:55;0.50;;;0.50;;
7887;SDS011;3989;48.810;9.208;2023-05-10T10:10:23;0.50;;;0.50;;
7887;SDS011;3989;48.810;9.208;2023-05-10T10:12:50;0.60;;;0.60;;
7887;SDS011;3989;48.810;9.208;2023-05-10T10:15:18;0.50;;;0.50;;
7887;SDS011;3989;48.810;9.208;2023-05-10T10:17:46;0.50;;;0.50;;
7887;SDS011;3989;48.810;9.208;2023-05-10T10:20:15;0.67;;;0.67;;
7887;SDS011;3989;48.810;9.208;2023-05-10T10:22:42;0.52;;;0.52;;
7887;SDS011;3989;48.810;9.208;2023-05-10T10:25:10;1.27;;;0.60;;
7887;SDS011;3989;48.810;9.208;2023-05-10T10:27:40;2.38;;;0.70;;
7887;SDS011;3989;48.810;9.208;2023-05-10T10:30:17;0.65;;;0.65;;
7887;SDS011;3989;48.810;9.208;2023-05-10T10:32:59;0.80;;;0.80;;
7887;SDS011;3989;48.810;9.208;2023-05-10T10:35:39;0.60;;;0.60;;
7887;SDS011;3989;48.810;9.208;2023-05-10T10:38:07;0.98;;;0.50;;
7887;SDS011;3989;48.810;9.208;2023-05-10T10:40:34;0.98;;;0.90;;
7887;SDS011;3989;48.810;9.208;2023-05-10T10:46:11;0.60;;;0.60;;
7887;SDS011;3989;48.810;9.208;2023-05-10T10:48:39;0.60;;;0.60;;
7887;SDS011;3989;48.810;9.208;2023-05-10T10:51:06;1.50;;;0.75;;
7887;SDS011;3989;48.810;9.208;2023-05-10T10:53:33;1.50;;;0.63;;
7887;SDS011;3989;48.810;9.208;2023-05-10T10:56:04;0.50;;;0.50;;
7887;SDS011;3989;48.810;9.208;2023-05-10T10:58:34;0.70;;;0.70;;
7887;SDS011;3989;48.810;9.208;2023-05-10T11:06:45;0.60;;;0.60;;
7887;SDS011;3989;48.810;9.208;2023-05-10T11:09:12;0.98;;;0.60;;
7887;SDS011;3989;48.810;9.208;2023-05-10T11:11:49;0.40;;;0.40;;
7887;SDS011;3989;48.810;9.208;2023-05-10T11:14:20;0.95;;;0.50;;
7887;SDS011;3989;48.810;9.208;2023-05-10T11:16:49;0.40;;;0.40;;
7887;SDS011;3989;48.810;9.208;2023-05-10T11:19:16;0.50;;;0.50;;
7887;SDS011;3989;48.810;9.208;2023-05-10T11:21:45;1.50;;;0.40;;
7887;SDS011;3989;48.810;9.208;2023-05-10T11:24:13;0.50;;;0.50;;
7887;SDS011;3989;48.810;9.208;2023-05-10T11:26:41;3.70;;;0.63;;
7887;SDS011;3989;48.810;9.208;2023-05-10T11:29:08;0.40;;;0.40;;
7887;SDS011;3989;48.810;9.208;2023-05-10T11:31:34;1.05;;;0.75;;
7887;SDS011;3989;48.810;9.208;2023-05-10T11:34:04;0.45;;;0.45;;
7887;SDS011;3989;48.810;9.208;2023-05-10T11:36:32;0.75;;;0.60;;
7887;SDS011;3989;48.810;9.208;2023-05-10T11:39:00;0.63;;;0.50;;
7887;SDS011;3989;48.810;9.208;2023-05-10T11:41:28;1.23;;;0.57;;
7887;SDS011;3989;48.810;9.208;2023-05-10T11:43:56;1.85;;;0.60;;
7887;SDS011;3989;48.810;9.208;2023-05-10T11:46:24;0.60;;;0.60;;
7887;SDS011;3989;48.810;9.208;2023-05-10T11:48:52;0.60;;;0.60;;
7887;SDS011;3989;48.810;9.208;2023-05-10T11:51:22;0.47;;;0.47;;
7887;SDS011;3989;48.810;9.208;2023-05-10T11:53:50;0.70;;;0.70;;
7887;SDS011;3989;48.810;9.208;2023-05-10T11:56:19;0.55;;;0.52;;
7887;SDS011;3989;48.810;9.208;2023-05-10T11:58:51;0.60;;;0.60;;
7887;SDS011;3989;48.810;9.208;2023-05-10T12:01:20;1.17;;;1.05;;
7887;SDS011;3989;48.810;9.208;2023-05-10T12:03:47;0.77;;;0.77;;
7887;SDS011;3989;48.810;9.208;2023-05-10T12:06:14;0.63;;;0.63;;
7887;SDS011;3989;48.810;9.208;2023-05-10T12:08:45;0.60;;;0.57;;
7887;SDS011;3989;48.810;9.208;2023-05-10T12:11:12;1.35;;;0.70;;
7887;SDS011;3989;48.810;9.208;2023-05-10T12:13:41;2.38;;;0.70;;
7887;SDS011;3989;48.810;9.208;2023-05-10T12:16:15;0.75;;;0.60;;
7887;SDS011;3989;48.810;9.208;2023-05-10T12:18:43;0.75;;;0.70;;
7887;SDS011;3989;48.810;9.208;2023-05-10T12:21:10;1.38;;;0.73;;
7887;SDS011;3989;48.810;9.208;2023-05-10T12:23:38;2.45;;;1.15;;
7887;SDS011;3989;48.810;9.208;2023-05-10T12:26:06;0.80;;;0.80;;
7887;SDS011;3989;48.810;9.208;2023-05-10T12:28:35;0.60;;;0.60;;
7887;SDS011;3989;48.810;9.208;2023-05-10T12:31:03;2.10;;;1.00;;
7887;SDS011;3989;48.810;9.208;2023-05-10T12:33:35;1.98;;;0.70;;
7887;SDS011;3989;48.810;9.208;2023-05-10T12:36:04;0.93;;;0.75;;
7887;SDS011;3989;48.810;9.208;2023-05-10T12:38:32;0.70;;;0.70;;
7887;SDS011;3989;48.810;9.208;2023-05-10T12:41:01;2.22;;;1.00;;
7887;SDS011;3989;48.810;9.208;2023-05-10T12:43:30;0.75;;;0.73;;
7887;SDS011;3989;48.810;9.208;2023-05-10T12:45:57;0.70;;;0.70;;
7887;SDS011;3989;48.810;9.208;2023-05-10T12:48:23;0.60;;;0.60;;
7887;SDS011;3989;48.810;9.208;2023-05-10T12:50:50;1.17;;;0.70;;
7887;SDS011;3989;48.810;9.208;2023-05-10T12:53:17;0.80;;;0.80;;
7887;SDS011;3989;48.810;9.208;2023-05-10T12:55:43;0.60;;;0.60;;
7887;SDS011;3989;48.810;9.208;2023-05-10T13:00:36;1.17;;;0.80;;
7887;SDS011;3989;48.810;9.208;2023-05-10T13:03:04;0.82;;;0.80;;
7887;SDS011;3989;48.810;9.208;2023-05-10T13:05:31;0.63;;;0.63;;
7887;SDS011;3989;48.810;9.208;2023-05-10T13:07:58;0.98;;;0.77;;
7887;SDS011;3989;48.810;9.208;2023-05-10T13:10:25;1.70;;;1.10;;
7887;SDS011;3989;48.810;9.208;2023-05-10T13:12:53;0.90;;;0.90;;
7887;SDS011;3989;48.810;9.208;2023-05-10T13:15:20;1.10;;;0.88;;
7887;SDS011;3989;48.810;9.208;2023-05-10T13:17:49;0.75;;;0.70;;
7887;SDS011;3989;48.810;9.208;2023-05-10T13:20:16;1.02;;;0.80;;
7887;SDS011;3989;48.810;9.208;2023-05-10T13:22:43;1.75;;;0.75;;
7887;SDS011;3989;48.810;9.208;2023-05-10T13:25:12;0.77;;;0.77;;
7887;SDS011;3989;48.810;9.208;2023-05-10T13:27:39;0.70;;;0.70;;
7887;SDS011;3989;48.810;9.208;2023-05-10T13:30:06;0.60;;;0.60;;
7887;SDS011;3989;48.810;9.208;2023-05-10T13:32:33;3.80;;;1.20;;
7887;SDS011;3989;48.810;9.208;2023-05-10T13:35:02;1.02;;;0.85;;
7887;SDS011;3989;48.810;9.208;2023-05-10T13:37:29;0.90;;;0.88;;
7887;SDS011;3989;48.810;9.208;2023-05-10T13:39:56;0.88;;;0.80;;
7887;SDS011;3989;48.810;9.208;2023-05-10T13:42:23;2.05;;;0.90;;
7887;SDS011;3989;48.810;9.208;2023-05-10T13:44:50;2.30;;;1.35;;
7887;SDS011;3989;48.810;9.208;2023-05-10T13:47:18;0.82;;;0.82;;
7887;SDS011;3989;48.810;9.208;2023-05-10T13:49:46;1.63;;;0.95;;
7887;SDS011;3989;48.810;9.208;2023-05-10T13:52:15;2.90;;;0.70;;
7887;SDS011;3989;48.810;9.208;2023-05-10T13:54:43;1.08;;;0.60;;
7887;SDS011;3989;48.810;9.208;2023-05-10T13:57:09;0.70;;;0.70;;
7887;SDS011;3989;48.810;9.208;2023-05-10T13:59:39;1.85;;;1.00;;
7887;SDS011;3989;48.810;9.208;2023-05-10T14:02:06;1.27;;;0.70;;
7887;SDS011;3989;48.810;9.208;2023-05-10T14:04:32;2.53;;;0.70;;
7887;SDS011;3989;48.810;9.208;2023-05-10T14:07:00;0.70;;;0.70;;
7887;SDS011;3989;48.810;9.208;2023-05-10T14:09:28;1.75;;;0.85;;
7887;SDS011;3989;48.810;9.208;2023-05-10T14:11:55;1.13;;;0.73;;
7887;SDS011;3989;48.810;9.208;2023-05-10T14:14:22;1.98;;;0.80;;
7887;SDS011;3989;48.810;9.208;2023-05-10T14:16:48;1.58;;;0.75;;
7887;SDS011;3989;48.810;9.208;2023-05-10T14:19:15;0.75;;;0.60;;
7887;SDS011;3989;48.810;9.208;2023-05-10T14:21:42;1.15;;;0.90;;
7887;SDS011;3989;48.810;9.208;2023-05-10T14:24:09;2.35;;;0.80;;
7887;SDS011;3989;48.810;9.208;2023-05-10T14:26:37;0.70;;;0.70;;
7887;SDS011;3989;48.810;9.208;2023-05-10T14:29:03;3.53;;;0.80;;
7887;SDS011;3989;48.810;9.208;2023-05-10T14:31:30;0.70;;;0.70;;
7887;SDS011;3989;48.810;9.208;2023-05-10T14:33:56;0.70;;;0.70;;
7887;SDS011;3989;48.810;9.208;2023-05-10T14:36:24;0.95;;;0.60;;
7887;SDS011;3989;48.810;9.208;2023-05-10T14:38:50;0.63;;;0.60;;
7887;SDS011;3989;48.810;9.208;2023-05-10T14:41:17;0.50;;;0.50;;
7887;SDS011;3989;48.810;9.208;2023-05-10T14:43:45;1.70;;;0.85;;
7887;SDS011;3989;48.810;9.208;2023-05-10T14:46:12;1.10;;;0.70;;
7887;SDS011;3989;48.810;9.208;2023-05-10T14:48:39;0.70;;;0.70;;
7887;SDS011;3989;48.810;9.208;2023-05-10T14:51:05;0.60;;;0.60;;
7887;SDS011;3989;48.810;9.208;2023-05-10T14:53:32;0.60;;;0.60;;
7887;SDS011;3989;48.810;9.208;2023-05-10T14:55:59;0.98;;;0.90;;
7887;SDS011;3989;48.810;9.208;2023-05-10T14:58:26;3.42;;;0.70;;
7887;SDS011;3989;48.810;9.208;2023-05-10T15:00:54;0.50;;;0.50;;
7887;SDS011;3989;48.810;9.208;2023-05-10T15:03:21;0.60;;;0.60;;
7887;SDS011;3989;48.810;9.208;2023-05-10T15:05:48;0.60;;;0.60;;
7887;SDS011;3989;48.810;9.208;2023-05-10T15:08:14;1.17;;;0.70;;
7887;SDS011;3989;48.810;9.208;2023-05-10T15:10:41;0.82;;;0.80;;
7887;SDS011;3989;48.810;9.208;2023-05-10T15:13:07;0.68;;;0.68;;
7887;SDS011;3989;48.810;9.208;2023-05-10T15:15:34;0.63;;;0.63;;
7887;SDS011;3989;48.810;9.208;2023-05-10T15:18:02;0.80;;;0.80;;
7887;SDS011;3989;48.810;9.208;2023-05-10T15:20:29;1.50;;;0.43;;
7887;SDS011;3989;48.810;9.208;2023-05-10T15:22:56;1.80;;;0.60;;
7887;SDS011;3989;48.810;9.208;2023-05-10T15:25:22;1.13;;;0.70;;
7887;SDS011;3989;48.810;9.208;2023-05-10T15:27:50;0.80;;;0.80;;
7887;SDS011;3989;48.810;9.208;2023-05-10T15:30:16;0.90;;;0.70;;
7887;SDS011;3989;48.810;9.208;2023-05-10T15:32:43;0.95;;;0.75;;